Time;durP1;ratioP1;P1;durP2;ratioP2;P2;SDS_P1;SDS_P2;PMS_P1;PMS_P2;Temp;Humidity;BMP_temperature;BMP_pressure;BME280_temperature;BME280_humidity;BME280_pressure;Samples;Min_cycle;Max_cycle;Signal;HPM_P1;HPM_P2
2021/10/10 00:01:24;;;;;;;15.13;9.67;;;;;;;5.00;100.00;97157.31;4962616;28;20037;-78
2021/10/10 00:03:49;;;;;;;17.27;10.07;;;;;;;4.99;100.00;97160.84;4958253;28;20038;-78
2021/10/10 00:06:16;;;;;;;20.10;11.90;;;;;;;5.03;100.00;97158.84;4948269;28;20042;-78
2021/10/10 00:08:42;;;;;;;21.87;10.53;;;;;;;5.01;100.00;97158.13;4936817;28;20447;-78
2021/10/10 00:11:14;;;;;;;16.07;9.50;;;;;;;5.01;100.00;97158.13;4962650;28;20031;-78
2021/10/10 00:13:43;;;;;;;16.93;10.00;;;;;;;5.04;100.00;97157.94;4944267;28;20040;-78
2021/10/10 00:16:08;;;;;;;15.67;10.57;;;;;;;5.01;100.00;97165.97;4940573;28;20030;-78
2021/10/10 00:18:35;;;;;;;21.40;10.60;;;;;;;4.95;100.00;97152.38;4942523;28;20081;-77
2021/10/10 00:21:10;;;;;;;18.27;10.23;;;;;;;4.91;100.00;97155.31;4953698;28;20897;-78
2021/10/10 00:23:36;;;;;;;17.47;11.10;;;;;;;4.83;100.00;97149.75;4969656;28;20455;-79
2021/10/10 00:26:03;;;;;;;18.07;10.43;;;;;;;4.89;100.00;97151.97;4975219;28;20125;-78
2021/10/10 00:28:30;;;;;;;15.87;10.10;;;;;;;4.86;100.00;97149.56;4934008;28;20030;-78
2021/10/10 00:30:57;;;;;;;19.00;9.87;;;;;;;4.83;100.00;97149.75;4971877;28;20148;-78
2021/10/10 00:33:24;;;;;;;21.13;11.37;;;;;;;4.81;100.00;97152.47;4952676;28;20109;-79
2021/10/10 00:35:50;;;;;;;16.73;10.83;;;;;;;4.75;100.00;97145.06;4947622;28;20031;-78
2021/10/10 00:38:16;;;;;;;17.97;10.63;;;;;;;4.76;100.00;97140.66;4936863;28;20053;-78
2021/10/10 00:40:41;;;;;;;19.03;10.97;;;;;;;4.79;100.00;97141.31;4937065;28;20444;-79
2021/10/10 00:43:07;;;;;;;15.80;11.07;;;;;;;4.75;100.00;97139.00;4952814;28;20036;-77
2021/10/10 00:45:33;;;;;;;16.70;10.67;;;;;;;4.83;100.00;97132.38;4954639;28;20034;-78
2021/10/10 00:48:00;;;;;;;17.67;10.33;;;;;;;4.80;100.00;97140.38;4947424;28;20038;-78
2021/10/10 00:50:27;;;;;;;22.57;11.27;;;;;;;4.75;100.00;97134.63;4943660;28;20039;-78
2021/10/10 00:52:58;;;;;;;19.00;10.27;;;;;;;4.65;100.00;97133.56;4957987;28;20104;-78
2021/10/10 00:55:25;;;;;;;17.20;10.57;;;;;;;4.60;100.00;97143.47;4937745;28;20026;-78
2021/10/10 00:57:51;;;;;;;17.87;11.03;;;;;;;4.47;100.00;97143.41;4940032;28;20077;-78
2021/10/10 01:00:20;;;;;;;16.83;11.27;;;;;;;4.32;100.00;97149.59;4969293;28;20049;-78
2021/10/10 01:02:46;;;;;;;18.37;12.27;;;;;;;4.17;100.00;97154.03;4962229;28;20022;-78
2021/10/10 01:05:14;;;;;;;18.80;11.50;;;;;;;4.08;100.00;97144.19;4964324;28;20169;-78
2021/10/10 01:07:53;;;;;;;23.53;10.77;;;;;;;4.10;100.00;97142.34;4950462;28;20082;-78
2021/10/10 01:10:20;;;;;;;20.43;12.90;;;;;;;3.91;100.00;97148.69;4946978;28;20034;-77
2021/10/10 01:12:46;;;;;;;16.27;11.20;;;;;;;3.91;100.00;97143.47;4961063;28;20084;-78
2021/10/10 01:15:25;;;;;;;21.43;12.07;;;;;;;4.05;100.00;97142.59;4962054;28;20030;-78
2021/10/10 01:17:51;;;;;;;22.60;11.47;;;;;;;4.13;100.00;97142.16;4942305;28;20026;-78
2021/10/10 01:20:20;;;;;;;19.67;12.17;;;;;;;4.09;100.00;97136.31;4958806;28;20457;-78
2021/10/10 01:22:46;;;;;;;21.50;11.70;;;;;;;4.04;100.00;97134.91;4951503;28;20031;-78
2021/10/10 01:25:12;;;;;;;17.93;11.10;;;;;;;4.05;100.00;97131.38;4952698;28;20503;-78
2021/10/10 01:27:39;;;;;;;20.57;11.90;;;;;;;4.10;100.00;97137.13;4946293;28;20090;-78
2021/10/10 01:30:05;;;;;;;18.50;11.57;;;;;;;4.21;100.00;97129.47;4951820;28;20022;-78
2021/10/10 01:32:31;;;;;;;18.93;11.77;;;;;;;4.18;100.00;97119.25;4939225;28;20035;-78
2021/10/10 01:34:56;;;;;;;20.77;12.77;;;;;;;4.19;100.00;97119.16;4976674;28;20029;-79
2021/10/10 01:37:22;;;;;;;20.67;11.37;;;;;;;4.11;100.00;97121.41;4954720;28;20090;-78
2021/10/10 01:39:48;;;;;;;17.63;10.90;;;;;;;4.16;100.00;97121.13;4960137;28;20027;-78
2021/10/10 01:42:14;;;;;;;20.93;11.87;;;;;;;4.19;100.00;97113.09;4969613;28;20073;-78
2021/10/10 01:44:39;;;;;;;20.77;11.30;;;;;;;4.24;100.00;97113.66;4934415;28;20106;-78
2021/10/10 01:47:05;;;;;;;27.20;11.43;;;;;;;4.22;100.00;97108.53;4960938;28;20043;-77
2021/10/10 01:49:38;;;;;;;22.20;11.33;;;;;;;4.24;100.00;97108.44;4955656;28;20045;-78
2021/10/10 01:52:11;;;;;;;17.97;11.27;;;;;;;4.23;100.00;97109.38;4943295;28;20027;-78
2021/10/10 01:54:37;;;;;;;19.40;11.73;;;;;;;4.08;100.00;97105.16;4965512;28;20681;-78
2021/10/10 01:57:03;;;;;;;21.80;12.30;;;;;;;3.97;100.00;97111.03;4938399;28;20033;-78
2021/10/10 01:59:29;;;;;;;20.57;12.53;;;;;;;3.93;100.00;97110.41;4985987;28;20035;-78
2021/10/10 02:01:56;;;;;;;19.30;11.83;;;;;;;3.94;100.00;97109.47;4961590;28;20631;-78
2021/10/10 02:04:22;;;;;;;17.70;12.43;;;;;;;3.89;100.00;97106.31;4947612;28;20066;-78
2021/10/10 02:06:57;;;;;;;16.63;11.90;;;;;;;3.89;100.00;97108.94;4974449;28;20507;-78
2021/10/10 02:09:22;;;;;;;23.00;11.90;;;;;;;3.81;100.00;97103.34;4955964;28;20117;-78
2021/10/10 02:11:48;;;;;;;17.83;11.97;;;;;;;3.82;100.00;97112.00;4958987;28;20109;-78
2021/10/10 02:14:15;;;;;;;19.53;12.60;;;;;;;3.80;100.00;97095.66;4940659;28;20042;-78
2021/10/10 02:16:40;;;;;;;21.47;12.53;;;;;;;3.87;100.00;97110.78;4957910;28;20405;-78
2021/10/10 02:19:28;;;;;;;17.93;12.40;;;;;;;3.76;100.00;97102.81;4985256;28;20041;-78
2021/10/10 02:21:56;;;;;;;19.40;12.83;;;;;;;3.82;100.00;97104.19;4958483;28;20389;-79
2021/10/10 02:24:27;;;;;;;23.13;12.73;;;;;;;3.82;100.00;97102.41;4964109;28;20027;-78
2021/10/10 02:26:53;;;;;;;20.53;11.67;;;;;;;3.78;100.00;97106.13;4954828;28;20041;-78
2021/10/10 02:29:21;;;;;;;18.67;11.23;;;;;;;3.79;100.00;97097.44;4954679;28;20035;-79
2021/10/10 02:31:50;;;;;;;22.30;12.93;;;;;;;3.85;100.00;97106.59;4944400;28;20035;-78
2021/10/10 02:34:18;;;;;;;18.83;12.27;;;;;;;3.87;100.00;97100.38;4954981;28;20401;-78
2021/10/10 02:36:47;;;;;;;25.13;12.87;;;;;;;3.91;100.00;97101.84;4956273;28;20037;-78
2021/10/10 02:39:13;;;;;;;20.50;14.00;;;;;;;3.72;100.00;97099.56;4964449;28;20034;-78
2021/10/10 02:41:39;;;;;;;24.50;12.83;;;;;;;3.68;100.00;97105.03;4958293;28;20037;-78
2021/10/10 02:44:06;;;;;;;21.30;12.20;;;;;;;3.62;100.00;97110.63;4982847;28;20034;-78
2021/10/10 02:46:32;;;;;;;20.43;12.83;;;;;;;3.68;100.00;97110.25;4962436;28;20078;-78
2021/10/10 02:49:07;;;;;;;16.73;11.60;;;;;;;3.72;100.00;97107.38;4978131;28;20581;-79
2021/10/10 02:51:33;;;;;;;20.03;11.53;;;;;;;3.70;100.00;97108.41;4939629;28;20023;-78
2021/10/10 02:54:21;;;;;;;19.63;13.00;;;;;;;3.62;100.00;97106.28;4957059;28;20508;-78
2021/10/10 02:57:04;;;;;;;21.70;11.97;;;;;;;3.59;100.00;97105.59;4957196;28;20524;-78
2021/10/10 02:59:30;;;;;;;18.63;11.43;;;;;;;3.48;100.00;97099.31;4937940;28;20053;-78
2021/10/10 03:01:55;;;;;;;22.80;13.00;;;;;;;3.48;100.00;97098.47;4942814;28;20030;-78
2021/10/10 03:04:21;;;;;;;24.13;13.47;;;;;;;3.59;100.00;97098.66;4956667;28;20110;-79
2021/10/10 03:06:47;;;;;;;20.47;12.87;;;;;;;3.56;100.00;97095.41;4938729;28;20110;-78
2021/10/10 03:09:14;;;;;;;22.37;12.37;;;;;;;3.45;100.00;97091.69;4949801;28;20062;-78
2021/10/10 03:11:40;;;;;;;21.90;12.27;;;;;;;3.59;100.00;97103.00;4952729;28;20053;-79
2021/10/10 03:14:06;;;;;;;23.27;13.57;;;;;;;3.56;100.00;97101.47;4957597;28;20489;-78
2021/10/10 03:16:31;;;;;;;22.30;12.17;;;;;;;3.52;100.00;97090.41;4938274;28;20061;-78
2021/10/10 03:18:57;;;;;;;23.50;13.37;;;;;;;3.48;100.00;97094.09;4940052;28;20090;-78
2021/10/10 03:21:23;;;;;;;18.77;12.30;;;;;;;3.47;100.00;97094.22;4935230;28;20062;-78
2021/10/10 03:23:52;;;;;;;22.27;13.70;;;;;;;3.32;100.00;97088.19;4948968;28;20034;-78
2021/10/10 03:26:17;;;;;;;21.73;13.10;;;;;;;3.31;100.00;97091.69;4971072;28;20027;-78
2021/10/10 03:28:43;;;;;;;23.20;14.20;;;;;;;3.27;100.00;97087.63;4938036;29;20043;-78
2021/10/10 03:31:25;;;;;;;22.13;13.07;;;;;;;3.33;100.00;97099.44;4947268;28;20034;-78
2021/10/10 03:33:57;;;;;;;24.67;14.23;;;;;;;3.30;100.00;97090.88;4965937;28;20030;-77
2021/10/10 03:36:22;;;;;;;20.73;13.47;;;;;;;3.36;100.00;97094.03;4948678;28;20512;-78
2021/10/10 03:38:48;;;;;;;21.37;13.00;;;;;;;3.40;100.00;97091.16;4952786;28;20026;-78
2021/10/10 03:41:16;;;;;;;22.03;12.90;;;;;;;3.36;100.00;97097.47;4937805;28;20042;-78
2021/10/10 03:43:48;;;;;;;22.67;13.27;;;;;;;3.28;100.00;97091.88;4955002;28;20030;-78
2021/10/10 03:46:13;;;;;;;20.47;13.47;;;;;;;3.23;100.00;97094.78;4958961;28;20030;-78
2021/10/10 03:48:47;;;;;;;25.57;15.87;;;;;;;3.27;100.00;97090.22;4953572;28;20114;-79
2021/10/10 03:51:13;;;;;;;18.90;12.93;;;;;;;3.17;100.00;97091.72;4970384;28;20037;-79
2021/10/10 03:56:23;;;;;;;25.20;13.53;;;;;;;3.28;100.00;97091.88;4976939;28;20035;-78
2021/10/10 03:58:49;;;;;;;21.10;13.50;;;;;;;3.30;100.00;97083.06;4960728;28;20038;-78
2021/10/10 04:01:15;;;;;;;20.73;12.37;;;;;;;3.31;100.00;97086.50;4942246;28;20104;-78
2021/10/10 04:03:40;;;;;;;21.93;13.50;;;;;;;3.21;100.00;97090.59;4949507;28;20108;-78
2021/10/10 04:06:06;;;;;;;22.10;13.30;;;;;;;3.17;100.00;97091.72;4952399;28;20047;-78
2021/10/10 04:08:32;;;;;;;23.27;13.00;;;;;;;3.15;100.00;97090.97;4943104;28;20478;-78
2021/10/10 04:11:05;;;;;;;24.10;13.40;;;;;;;3.15;100.00;97093.56;4940643;28;20035;-78
2021/10/10 04:13:30;;;;;;;23.27;13.15;;;;;;;3.16;100.00;97095.25;4939729;28;20444;-78
2021/10/10 04:15:58;;;;;;;24.10;13.83;;;;;;;3.13;100.00;97090.22;4934483;28;20023;-78
2021/10/10 04:18:33;;;;;;;18.93;13.13;;;;;;;3.06;100.00;97093.19;4952734;28;20405;-78
2021/10/10 04:20:59;;;;;;;21.13;13.77;;;;;;;3.06;100.00;97088.00;4957231;28;20034;-78
2021/10/10 04:23:26;;;;;;;20.23;13.67;;;;;;;3.09;100.00;97092.19;4957363;28;20023;-79
2021/10/10 04:25:51;;;;;;;20.70;13.37;;;;;;;3.07;100.00;97087.06;4954737;28;20116;-78
2021/10/10 04:28:17;;;;;;;24.67;13.67;;;;;;;3.05;100.00;97098.47;4940496;28;20518;-78
2021/10/10 04:30:43;;;;;;;23.30;14.33;;;;;;;3.06;100.00;97100.16;4962084;28;20058;-79
2021/10/10 04:33:09;;;;;;;19.43;13.03;;;;;;;3.05;100.00;97098.47;4945503;28;20089;-78
2021/10/10 04:35:35;;;;;;;18.83;12.13;;;;;;;2.92;100.00;97095.78;4956442;28;20035;-78
2021/10/10 04:38:02;;;;;;;20.90;12.93;;;;;;;2.83;100.00;97109.31;4951324;28;20131;-78
2021/10/10 04:40:27;;;;;;;20.70;13.57;;;;;;;2.84;100.00;97098.81;4939411;28;20560;-78
2021/10/10 04:42:53;;;;;;;21.37;12.73;;;;;;;2.79;100.00;97100.03;4946382;28;20034;-78
2021/10/10 04:45:19;;;;;;;23.40;12.93;;;;;;;2.83;100.00;97102.34;4940549;28;20731;-78
2021/10/10 04:47:45;;;;;;;19.80;12.60;;;;;;;2.76;100.00;97100.22;4937590;28;20445;-78
2021/10/10 04:50:13;;;;;;;24.10;12.83;;;;;;;2.76;100.00;97095.00;4976401;28;20045;-78
2021/10/10 04:52:41;;;;;;;18.37;12.80;;;;;;;2.74;100.00;97097.69;4944016;28;20075;-78
2021/10/10 04:55:07;;;;;;;19.20;13.00;;;;;;;2.73;100.00;97102.97;4955743;28;20038;-78
2021/10/10 04:57:39;;;;;;;23.33;13.53;;;;;;;2.73;100.00;97110.78;4950785;28;20033;-78
2021/10/10 05:00:05;;;;;;;20.40;13.43;;;;;;;2.72;100.00;97096.13;4948434;28;20095;-78
2021/10/10 05:02:31;;;;;;;18.83;12.33;;;;;;;2.64;100.00;97100.91;4965569;28;20105;-78
2021/10/10 05:05:04;;;;;;;22.97;12.97;;;;;;;2.62;100.00;97102.78;4945017;28;20027;-78
2021/10/10 05:07:29;;;;;;;24.40;14.87;;;;;;;2.54;100.00;97101.44;4942367;28;20128;-78
2021/10/10 05:09:55;;;;;;;25.13;15.50;;;;;;;2.56;100.00;97102.19;4948172;28;20069;-78
2021/10/10 05:12:30;;;;;;;21.47;14.30;;;;;;;2.51;100.00;97108.56;4958759;28;20038;-79
2021/10/10 05:14:56;;;;;;;24.33;14.77;;;;;;;2.39;100.00;97104.94;4938473;29;20409;-78
2021/10/10 05:17:28;;;;;;;22.40;14.33;;;;;;;2.43;100.00;97109.00;4947710;28;20057;-78
2021/10/10 05:19:54;;;;;;;31.30;20.43;;;;;;;2.40;100.00;97109.19;4959067;28;20505;-78
2021/10/10 05:22:19;;;;;;;25.67;17.67;;;;;;;2.46;100.00;97108.84;4939222;28;20039;-78
2021/10/10 05:24:45;;;;;;;29.03;17.93;;;;;;;2.47;100.00;97104.47;4939694;28;20129;-78
2021/10/10 05:27:18;;;;;;;21.77;14.00;;;;;;;2.44;100.00;97112.44;4946825;28;20117;-78
2021/10/10 05:29:44;;;;;;;22.95;13.77;;;;;;;2.44;100.00;97104.66;4946909;28;20477;-78
2021/10/10 05:32:09;;;;;;;24.40;14.03;;;;;;;2.38;100.00;97108.44;4961449;28;20034;-78
2021/10/10 05:34:35;;;;;;;23.10;13.67;;;;;;;2.44;100.00;97110.69;4971343;28;20486;-78
2021/10/10 05:37:01;;;;;;;23.07;14.27;;;;;;;2.41;100.00;97107.44;4941357;28;20079;-78
2021/10/10 05:39:27;;;;;;;21.57;14.17;;;;;;;2.49;100.00;97103.47;4951551;28;20053;-78
2021/10/10 05:41:52;;;;;;;20.00;12.93;;;;;;;2.50;100.00;97104.31;4956455;28;20029;-78
2021/10/10 05:44:18;;;;;;;22.17;14.30;;;;;;;2.48;100.00;97100.94;4961510;28;21071;-78
2021/10/10 05:46:44;;;;;;;24.40;15.90;;;;;;;2.52;100.00;97105.91;4937063;28;20629;-79
2021/10/10 05:49:09;;;;;;;22.93;13.97;;;;;;;2.59;100.00;97104.63;4939689;28;20050;-78
2021/10/10 05:51:35;;;;;;;25.10;15.87;;;;;;;2.67;100.00;97098.16;4939543;28;20120;-78
2021/10/10 05:54:02;;;;;;;23.83;16.43;;;;;;;2.66;100.00;97110.28;4940182;28;20804;-78
2021/10/10 05:56:27;;;;;;;26.83;18.07;;;;;;;2.93;100.00;97107.00;4956934;28;20023;-78
2021/10/10 05:59:02;;;;;;;24.33;15.13;;;;;;;3.01;100.00;97108.22;4944835;28;20465;-85
2021/10/10 06:01:27;;;;;;;23.77;16.20;;;;;;;3.10;100.00;97108.59;4941157;28;20031;-85
2021/10/10 06:03:55;;;;;;;25.43;17.20;;;;;;;3.26;100.00;97106.75;4972428;28;20086;-85
2021/10/10 06:06:22;;;;;;;27.43;16.13;;;;;;;3.32;100.00;97109.00;4941227;28;20523;-85
2021/10/10 06:08:48;;;;;;;28.07;16.23;;;;;;;3.29;100.00;97114.38;4957799;28;20035;-85
2021/10/10 06:11:13;;;;;;;27.80;16.80;;;;;;;3.31;100.00;97118.53;4960960;28;20470;-85
2021/10/10 06:13:39;;;;;;;24.57;14.87;;;;;;;3.49;100.00;97120.97;4973985;28;20027;-85
2021/10/10 06:16:09;;;;;;;23.57;15.43;;;;;;;3.63;100.00;97115.75;4939283;28;20041;-84
2021/10/10 06:18:35;;;;;;;25.47;16.23;;;;;;;3.75;100.00;97114.97;4965665;28;20035;-85
2021/10/10 06:21:13;;;;;;;25.07;15.87;;;;;;;4.02;100.00;97111.56;4944717;28;20102;-85
2021/10/10 06:23:54;;;;;;;23.53;14.93;;;;;;;4.31;100.00;97109.72;4935252;28;20134;-84
2021/10/10 06:26:31;;;;;;;24.60;15.47;;;;;;;4.40;100.00;97109.13;4943847;28;20109;-84
2021/10/10 06:29:02;;;;;;;21.27;14.27;;;;;;;4.70;100.00;97108.06;4939656;28;20035;-84
2021/10/10 06:31:28;;;;;;;27.23;15.77;;;;;;;4.79;100.00;97114.41;4946591;28;20638;-85
2021/10/10 06:33:53;;;;;;;26.50;16.23;;;;;;;4.80;100.00;97106.50;4935810;29;20038;-85
2021/10/10 06:36:20;;;;;;;22.40;14.90;;;;;;;5.61;99.75;97100.97;4955102;28;20058;-84
2021/10/10 06:38:49;;;;;;;24.20;13.87;;;;;;;5.70;97.76;97109.94;4957374;28;20097;-85
2021/10/10 06:41:15;;;;;;;25.07;15.13;;;;;;;6.10;95.40;97107.97;4977183;28;20034;-85
2021/10/10 06:43:44;;;;;;;22.67;14.37;;;;;;;6.43;94.53;97103.00;4962588;28;20058;-85
2021/10/10 06:46:18;;;;;;;22.70;14.10;;;;;;;6.67;91.15;97105.59;4955888;28;20035;-85
2021/10/10 06:48:44;;;;;;;24.17;13.57;;;;;;;6.73;89.72;97113.00;4953796;28;20038;-85
2021/10/10 06:51:10;;;;;;;23.37;13.17;;;;;;;7.32;88.21;97105.88;4951788;28;20385;-84
2021/10/10 06:53:35;;;;;;;20.90;14.50;;;;;;;6.93;88.60;97108.88;4960055;28;20129;-85
2021/10/10 06:56:04;;;;;;;76.83;41.90;;;;;;;6.69;90.23;97115.00;4954217;28;20023;-85
2021/10/10 06:58:31;;;;;;;77.07;41.27;;;;;;;6.93;92.59;97116.72;4950617;28;20092;-85
2021/10/10 07:00:57;;;;;;;47.50;29.33;;;;;;;7.69;86.87;97117.91;4959168;28;20026;-84
2021/10/10 07:03:22;;;;;;;36.00;21.10;;;;;;;7.25;89.38;97124.78;4957112;28;20043;-84
2021/10/10 07:05:48;;;;;;;26.90;15.43;;;;;;;7.82;85.44;97117.78;4963678;28;20030;-85
2021/10/10 07:08:14;;;;;;;19.10;12.97;;;;;;;8.32;84.10;97105.91;4948360;29;20054;-84
2021/10/10 07:10:54;;;;;;;25.33;12.47;;;;;;;8.24;81.58;97110.91;4953722;28;20057;-84
2021/10/10 07:13:22;;;;;;;17.70;12.87;;;;;;;8.60;80.56;97107.13;4970574;28;20046;-84
2021/10/10 07:15:47;;;;;;;21.17;13.70;;;;;;;8.49;82.34;97113.25;4960399;28;20477;-84
2021/10/10 07:18:15;;;;;;;20.37;13.07;;;;;;;9.19;79.77;97117.09;4959787;28;20097;-84
2021/10/10 07:25:58;;;;;;;23.30;14.43;;;;;;;9.58;76.08;97111.19;4967869;28;20042;-85
2021/10/10 07:28:24;;;;;;;22.17;15.53;;;;;;;8.79;81.54;97119.56;4953917;28;20447;-85
2021/10/10 07:30:51;;;;;;;21.50;13.13;;;;;;;9.64;74.63;97108.06;4941767;28;20191;-84
2021/10/10 07:33:18;;;;;;;23.67;13.07;;;;;;;9.70;76.09;97112.78;4944506;28;20050;-85
2021/10/10 07:35:45;;;;;;;23.10;13.10;;;;;;;9.63;76.13;97112.47;4954695;28;20031;-85
2021/10/10 07:38:11;;;;;;;21.50;12.27;;;;;;;9.12;79.06;97118.56;4946497;28;20488;-85
2021/10/10 07:40:36;;;;;;;20.63;12.07;;;;;;;10.55;74.74;97111.47;4959349;28;20110;-84
2021/10/10 07:43:02;;;;;;;19.60;12.17;;;;;;;10.82;71.60;97105.53;4942702;28;20031;-86
2021/10/10 07:45:30;;;;;;;17.13;12.73;;;;;;;10.66;74.37;97107.88;4947641;28;20520;-84
2021/10/10 07:48:02;;;;;;;19.60;13.73;;;;;;;10.04;75.64;97109.84;4973050;28;20131;-84
2021/10/10 07:50:29;;;;;;;17.73;12.50;;;;;;;10.25;76.93;97115.00;4963484;28;20508;-84
2021/10/10 07:52:55;;;;;;;21.67;13.57;;;;;;;9.95;76.88;97110.66;4940304;28;20078;-85
2021/10/10 07:55:21;;;;;;;21.70;12.97;;;;;;;10.38;76.09;97113.00;4971743;28;20035;-84
2021/10/10 07:57:46;;;;;;;19.53;13.17;;;;;;;11.06;72.81;97119.06;4961687;28;20019;-84
2021/10/10 08:00:13;;;;;;;20.77;13.57;;;;;;;10.59;73.24;97115.50;4977648;28;20041;-85
2021/10/10 08:02:53;;;;;;;19.00;13.27;;;;;;;9.00;80.79;97124.81;4953223;28;20105;-84
2021/10/10 08:05:20;;;;;;;21.47;12.67;;;;;;;10.33;75.47;97123.94;4959276;28;20097;-83
2021/10/10 08:07:46;;;;;;;19.70;12.60;;;;;;;10.46;71.92;97128.06;4941839;28;20026;-84
2021/10/10 08:10:12;;;;;;;19.57;13.63;;;;;;;9.83;77.02;97120.44;4943370;28;20046;-84
2021/10/10 08:12:38;;;;;;;21.80;12.13;;;;;;;10.94;74.14;97114.94;4937266;28;20031;-84
2021/10/10 08:15:04;;;;;;;19.40;12.07;;;;;;;10.55;72.19;97120.19;4954136;28;20031;-84
2021/10/10 08:17:29;;;;;;;18.77;12.77;;;;;;;10.84;72.19;97116.75;4945577;28;20030;-83
2021/10/10 08:19:56;;;;;;;17.37;11.83;;;;;;;11.37;70.48;97121.53;4955891;28;20397;-82
2021/10/10 08:22:23;;;;;;;18.83;12.23;;;;;;;10.86;71.37;97120.06;4976231;28;20026;-83
2021/10/10 08:24:49;;;;;;;19.47;12.30;;;;;;;11.34;67.14;97129.72;4936172;28;20053;-82
2021/10/10 08:27:14;;;;;;;18.03;11.73;;;;;;;12.36;66.16;97119.19;4953638;28;20101;-85
2021/10/10 08:29:40;;;;;;;24.53;15.87;;;;;;;11.92;66.37;97113.75;4941515;28;20039;-83
2021/10/10 08:32:09;;;;;;;23.47;13.77;;;;;;;12.23;65.12;97118.72;4960066;28;20030;-83
2021/10/10 08:34:36;;;;;;;17.60;12.03;;;;;;;12.77;63.84;97111.66;4956158;28;20049;-83
2021/10/10 08:37:03;;;;;;;20.60;12.27;;;;;;;13.14;62.67;97115.94;4960925;28;20035;-77
2021/10/10 08:39:34;;;;;;;18.13;11.57;;;;;;;13.79;59.98;97105.00;4970807;28;20165;-77
2021/10/10 08:42:03;;;;;;;17.43;11.17;;;;;;;13.04;61.01;97115.19;4952399;28;20038;-77
2021/10/10 08:44:35;;;;;;;19.53;12.53;;;;;;;12.60;63.85;97108.03;4952833;28;20038;-77
2021/10/10 08:47:09;;;;;;;14.00;8.57;;;;;;;12.68;63.38;97110.78;4937429;28;20042;-77
2021/10/10 08:49:37;;;;;;;;;;;;;;;12.88;61.85;97115.91;4980255;28;20141;-83
2021/10/10 08:52:04;;;;;;;16.87;11.63;;;;;;;12.74;60.81;97118.09;4943535;28;19914;-83
2021/10/10 08:54:29;;;;;;;22.53;13.47;;;;;;;13.81;59.16;97113.56;4938354;28;20058;-83
2021/10/10 08:56:59;;;;;;;19.23;13.10;;;;;;;13.62;60.96;97123.41;4936240;28;20054;-83
2021/10/10 08:59:26;;;;;;;22.97;15.13;;;;;;;14.47;57.61;97119.94;4961556;28;20049;-82
2021/10/10 09:01:57;;;;;;;19.53;13.57;;;;;;;13.87;58.83;97116.41;4943667;28;20026;-77
2021/10/10 09:04:22;;;;;;;15.43;11.03;;;;;;;14.43;54.69;97115.97;4953175;28;20048;-77
2021/10/10 09:06:48;;;;;;;18.17;10.20;;;;;;;15.66;52.27;97112.41;4942714;28;20023;-77
2021/10/10 09:09:30;;;;;;;19.90;11.27;;;;;;;16.43;50.75;97103.78;4970814;28;20035;-76
2021/10/10 09:12:05;;;;;;;16.33;11.13;;;;;;;16.00;51.30;97109.47;4971426;28;20038;-76
2021/10/10 09:14:49;;;;;;;18.00;11.63;;;;;;;15.66;51.52;97111.50;4959137;28;20062;-77
2021/10/10 09:17:18;;;;;;;18.33;11.27;;;;;;;15.44;51.82;97113.06;4974503;28;20521;-77
2021/10/10 09:19:57;;;;;;;22.33;13.38;;;;;;;15.32;53.73;97113.44;4946001;28;20377;-77
2021/10/10 09:22:24;;;;;;;33.92;18.00;;;;;;;14.89;55.36;97108.44;4967849;28;20041;-82
2021/10/10 09:24:51;;;;;;;19.05;11.20;;;;;;;14.90;53.66;97107.47;4982357;28;20030;-83
2021/10/10 09:27:18;;;;;;;18.80;12.52;;;;;;;15.25;52.90;97106.28;4987186;28;20031;-83
2021/10/10 09:30:08;;;;;;;17.67;11.48;;;;;;;16.31;50.91;97099.88;4989549;28;20034;-83
2021/10/10 09:32:35;;;;;;;20.48;11.68;;;;;;;15.98;51.09;97105.31;4965588;28;20038;-77
2021/10/10 09:35:05;;;;;;;19.92;12.20;;;;;;;15.58;51.05;97107.06;4943183;28;20031;-77
2021/10/10 09:37:46;;;;;;;22.83;14.25;;;;;;;15.92;50.82;97106.84;4962819;28;20518;-76
2021/10/10 09:40:40;;;;;;;17.60;11.80;;;;;;;17.11;48.41;97099.53;4952043;28;20041;-77
2021/10/10 09:43:06;;;;;;;18.92;11.55;;;;;;;15.69;51.34;97104.09;4966140;28;20072;-77
2021/10/10 09:48:06;;;;;;;19.95;11.32;;;;;;;15.45;51.68;97101.47;4984578;28;20101;-76
2021/10/10 09:50:36;;;;;;;18.15;10.63;;;;;;;14.69;52.78;97103.47;4950562;28;20034;-77
2021/10/10 09:53:08;;;;;;;14.93;10.57;;;;;;;16.25;47.78;97099.56;4945774;28;20074;-75
2021/10/10 09:55:36;;;;;;;20.88;11.23;;;;;;;15.11;49.62;97102.50;4972774;28;20066;-75
2021/10/10 09:58:03;;;;;;;16.50;10.60;;;;;;;14.66;50.46;97102.97;4978734;28;20073;-75
2021/10/10 10:00:32;;;;;;;14.77;9.90;;;;;;;15.51;48.54;97101.63;4973377;28;20034;-75
2021/10/10 10:03:08;;;;;;;17.00;10.73;;;;;;;15.83;48.05;97101.72;4955685;28;20023;-75
2021/10/10 10:05:34;;;;;;;17.73;11.55;;;;;;;16.57;46.57;97094.25;4939347;28;20053;-75
2021/10/10 10:08:02;;;;;;;14.13;9.63;;;;;;;15.68;48.12;97105.09;4954633;28;20039;-77
2021/10/10 10:10:34;;;;;;;15.13;9.60;;;;;;;15.57;44.52;97103.59;4941228;28;20098;-77
2021/10/10 10:13:01;;;;;;;19.15;12.88;;;;;;;15.86;46.84;97096.94;4978933;28;20035;-77
2021/10/10 10:15:35;;;;;;;20.38;14.45;;;;;;;16.02;46.04;97106.63;4945624;28;20052;-77
2021/10/10 10:18:04;;;;;;;15.32;9.05;;;;;;;15.59;45.30;97105.25;4956378;28;20034;-77
2021/10/10 10:20:30;;;;;;;24.63;13.48;;;;;;;15.77;45.52;97100.59;4945856;28;20043;-77
2021/10/10 10:23:06;;;;;;;22.00;13.00;;;;;;;15.88;45.44;97102.88;4959104;28;20658;-77
2021/10/10 10:25:32;;;;;;;19.95;11.02;;;;;;;15.32;46.18;97107.28;4973653;28;20061;-77
2021/10/10 10:27:58;;;;;;;13.35;8.80;;;;;;;15.59;45.85;97102.59;4978289;28;20473;-77
2021/10/10 10:30:25;;;;;;;15.88;9.30;;;;;;;14.88;47.29;97106.78;4961892;28;20061;-77
2021/10/10 10:32:53;;;;;;;16.70;9.30;;;;;;;15.89;45.44;97104.50;4950164;28;20030;-77
2021/10/10 10:35:19;;;;;;;15.25;9.05;;;;;;;15.94;45.34;97098.72;4946660;28;20035;-77
2021/10/10 10:37:53;;;;;;;18.77;10.20;;;;;;;15.37;45.03;97109.44;4965683;28;20026;-77
2021/10/10 10:40:27;;;;;;;19.10;12.18;;;;;;;15.68;44.46;97105.09;4937543;28;20027;-77
2021/10/10 10:42:56;;;;;;;18.77;9.65;;;;;;;15.25;45.21;97108.94;4977560;28;20093;-77
2021/10/10 10:45:32;;;;;;;20.20;8.82;;;;;;;15.67;45.78;97097.31;4981966;28;20481;-77
2021/10/10 10:48:00;;;;;;;15.25;9.15;;;;;;;16.40;44.45;97088.22;4947771;28;20120;-77
2021/10/10 10:50:28;;;;;;;14.25;8.85;;;;;;;15.74;45.99;97092.97;4968507;28;20547;-78
2021/10/10 10:53:02;;;;;;;12.48;8.32;;;;;;;16.15;44.67;97091.00;4957698;28;20035;-77
2021/10/10 10:55:40;;;;;;;16.75;8.35;;;;;;;16.77;44.15;97084.84;4956107;28;20378;-77
2021/10/10 10:58:05;;;;;;;14.93;9.07;;;;;;;16.41;45.24;97087.22;4965107;28;20038;-77
2021/10/10 11:00:36;;;;;;;16.63;8.80;;;;;;;16.37;43.52;97084.09;4981348;28;20030;-77
2021/10/10 11:03:24;;;;;;;14.55;8.80;;;;;;;15.45;44.62;97093.50;4958381;28;20049;-77
2021/10/10 11:06:00;;;;;;;16.03;8.30;;;;;;;15.57;44.88;97084.22;4970161;28;20031;-76
2021/10/10 11:08:26;;;;;;;14.50;8.88;;;;;;;16.24;45.05;97071.38;4937504;28;20509;-77
2021/10/10 11:11:15;;;;;;;12.93;7.93;;;;;;;16.76;42.54;97077.06;4971120;28;20033;-77
2021/10/10 11:13:54;;;;;;;14.32;9.55;;;;;;;16.23;43.52;97076.84;4940069;28;20038;-77
2021/10/10 11:16:28;;;;;;;19.35;9.38;;;;;;;16.19;42.68;97076.38;4958010;28;20393;-77
2021/10/10 11:18:57;;;;;;;18.25;9.13;;;;;;;15.61;43.42;97079.41;4957396;28;20054;-77
2021/10/10 11:21:29;;;;;;;15.13;9.27;;;;;;;15.04;45.89;97085.59;4934473;28;20121;-77
2021/10/10 11:24:03;;;;;;;10.30;7.25;;;;;;;15.28;44.28;97069.69;4974929;28;20053;-77
2021/10/10 11:26:38;;;;;;;17.15;9.02;;;;;;;15.44;44.88;97071.47;4956307;28;20348;-76
2021/10/10 11:29:12;;;;;;;13.50;8.25;;;;;;;16.46;43.09;97061.81;4953771;28;20408;-76
2021/10/10 11:31:39;;;;;;;15.32;9.25;;;;;;;16.14;43.97;97064.63;4955134;28;20125;-77
2021/10/10 11:34:18;;;;;;;18.38;8.70;;;;;;;16.45;42.77;97065.44;4940700;28;20019;-76
2021/10/10 11:36:49;;;;;;;13.68;8.88;;;;;;;15.33;44.21;97077.97;4964567;28;20027;-76